Time;durP1;ratioP1;P1;durP2;ratioP2;P2;SDS_P1;SDS_P2;PMS_P1;PMS_P2;Temp;Humidity;BMP_temperature;BMP_pressure;BME280_temperature;BME280_humidity;BME280_pressure;Samples;Min_cycle;Max_cycle;Signal;HPM_P1;HPM_P2
2021/11/15 00:01:46;;;;;;;9.65;6.38;;;7.50;99.90;;;;;;5104728;28;20047;-68
2021/11/15 00:04:17;;;;;;;10.18;6.35;;;7.50;99.90;;;;;;5106185;28;20042;-68
2021/11/15 00:06:44;;;;;;;9.48;5.65;;;7.50;99.90;;;;;;5071689;28;20513;-68
2021/11/15 00:09:13;;;;;;;11.55;6.88;;;7.50;99.90;;;;;;5100271;28;20059;-68
2021/11/15 00:11:40;;;;;;;10.75;6.03;;;7.50;99.90;;;;;;5102968;28;20047;-68
2021/11/15 00:14:08;;;;;;;9.60;6.22;;;7.50;99.90;;;;;;5089397;28;20056;-68
2021/11/15 00:16:36;;;;;;;11.35;6.03;;;7.40;99.90;;;;;;5102446;28;20344;-68
2021/11/15 00:19:03;;;;;;;10.48;6.53;;;7.50;99.90;;;;;;5072042;28;20036;-69
2021/11/15 00:21:31;;;;;;;9.10;6.30;;;7.50;99.90;;;;;;5089694;28;20048;-68
2021/11/15 00:23:58;;;;;;;14.32;6.38;;;7.50;99.90;;;;;;5090295;28;20040;-68
2021/11/15 00:26:26;;;;;;;11.38;6.65;;;7.50;99.90;;;;;;5090522;28;20071;-68
2021/11/15 00:28:54;;;;;;;9.25;5.95;;;7.40;99.90;;;;;;5090181;28;20123;-68
2021/11/15 00:31:22;;;;;;;18.40;9.40;;;7.40;99.90;;;;;;5093438;28;20040;-68
2021/11/15 00:33:52;;;;;;;9.93;6.57;;;7.50;99.90;;;;;;5094466;28;20059;-69
2021/11/15 00:36:19;;;;;;;10.60;6.32;;;7.40;99.90;;;;;;5090652;28;20044;-68
2021/11/15 00:38:48;;;;;;;12.02;6.57;;;7.50;99.90;;;;;;5101845;28;20528;-68
2021/11/15 00:41:15;;;;;;;11.73;6.72;;;7.40;99.90;;;;;;5095285;28;20413;-68
2021/11/15 00:43:43;;;;;;;10.20;6.00;;;7.40;99.90;;;;;;5093187;28;20039;-68
2021/11/15 00:46:10;;;;;;;10.93;6.47;;;7.40;99.90;;;;;;5109456;28;20043;-68
2021/11/15 00:48:38;;;;;;;11.35;6.80;;;7.40;99.90;;;;;;5095388;28;20035;-68
2021/11/15 00:51:06;;;;;;;11.32;6.60;;;7.50;99.90;;;;;;5100381;28;20039;-68
2021/11/15 00:53:35;;;;;;;24.55;14.45;;;7.40;99.90;;;;;;5110974;28;20047;-68
2021/11/15 00:56:03;;;;;;;16.10;9.75;;;7.40;99.90;;;;;;5108781;28;20096;-68
2021/11/15 00:58:31;;;;;;;11.35;7.15;;;7.40;99.90;;;;;;5110918;28;20134;-68
2021/11/15 01:00:58;;;;;;;11.45;6.85;;;7.40;99.90;;;;;;5107099;28;20047;-68
2021/11/15 01:03:26;;;;;;;12.23;7.05;;;7.40;99.90;;;;;;5090041;28;20078;-68
2021/11/15 01:05:54;;;;;;;13.13;7.43;;;7.30;99.90;;;;;;5108252;28;20047;-68
2021/11/15 01:08:22;;;;;;;11.77;6.97;;;7.30;99.90;;;;;;5079462;28;20123;-68
2021/11/15 01:10:52;;;;;;;12.70;7.10;;;7.30;99.90;;;;;;5110853;28;20054;-68
2021/11/15 01:13:21;;;;;;;13.02;7.75;;;7.30;99.90;;;;;;5108300;28;20126;-68
2021/11/15 01:15:49;;;;;;;11.27;6.90;;;7.20;99.90;;;;;;5111312;28;20043;-68
2021/11/15 01:18:17;;;;;;;12.77;7.63;;;7.20;99.90;;;;;;5090219;28;20405;-68
2021/11/15 01:20:44;;;;;;;12.55;7.40;;;7.20;99.90;;;;;;5089747;28;20059;-68
2021/11/15 01:23:12;;;;;;;15.23;8.25;;;7.20;99.90;;;;;;5108078;28;20485;-68
2021/11/15 01:25:40;;;;;;;14.20;8.35;;;7.20;99.90;;;;;;5096749;28;20490;-68
2021/11/15 01:28:08;;;;;;;12.75;8.65;;;7.20;99.90;;;;;;5088538;28;20043;-68
2021/11/15 01:30:35;;;;;;;14.32;8.48;;;7.20;99.90;;;;;;5107705;28;20036;-68
2021/11/15 01:33:03;;;;;;;12.88;8.45;;;7.20;99.90;;;;;;5114576;28;20061;-68
2021/11/15 01:35:31;;;;;;;12.98;8.05;;;7.20;99.90;;;;;;5108943;28;20035;-68
2021/11/15 01:37:59;;;;;;;12.63;7.85;;;7.20;99.90;;;;;;5096566;28;20505;-68
2021/11/15 01:40:29;;;;;;;14.15;8.20;;;7.10;99.90;;;;;;5090550;28;20048;-68
2021/11/15 01:42:57;;;;;;;15.00;9.23;;;7.20;99.90;;;;;;5096358;28;20512;-68
2021/11/15 01:45:27;;;;;;;14.85;8.98;;;7.20;99.90;;;;;;5114291;28;20478;-68
2021/11/15 01:47:58;;;;;;;16.58;9.57;;;7.10;99.90;;;;;;5111562;28;20051;-67
2021/11/15 01:50:26;;;;;;;16.92;9.30;;;7.20;99.90;;;;;;5111561;28;20043;-67
2021/11/15 01:52:54;;;;;;;15.68;9.18;;;7.10;99.90;;;;;;5079695;28;20040;-67
2021/11/15 01:55:23;;;;;;;14.50;8.95;;;7.10;99.90;;;;;;5105347;28;20113;-67
2021/11/15 01:57:51;;;;;;;15.90;9.90;;;7.20;99.90;;;;;;5113903;28;20551;-67
2021/11/15 02:00:44;;;;;;;17.40;9.77;;;7.10;99.90;;;;;;5103753;28;20070;-67
2021/11/15 02:03:13;;;;;;;16.13;9.50;;;7.10;99.90;;;;;;5093643;28;20120;-67
2021/11/15 02:05:41;;;;;;;18.10;10.10;;;7.10;99.90;;;;;;5093416;28;20040;-67
2021/11/15 02:08:08;;;;;;;16.25;9.82;;;7.10;99.90;;;;;;5077405;28;20580;-68
2021/11/15 02:10:36;;;;;;;19.00;10.30;;;7.10;99.90;;;;;;5113932;28;20101;-68
2021/11/15 02:13:04;;;;;;;15.40;9.77;;;7.10;99.90;;;;;;5064759;28;20126;-68
2021/11/15 02:15:32;;;;;;;20.20;10.63;;;7.10;99.90;;;;;;5113948;28;20044;-68
2021/11/15 02:17:59;;;;;;;18.15;10.98;;;7.10;99.90;;;;;;5113302;28;20039;-68
2021/11/15 02:20:42;;;;;;;20.05;12.27;;;7.10;99.90;;;;;;5095574;28;20040;-68
2021/11/15 02:23:10;;;;;;;19.95;11.82;;;7.10;99.90;;;;;;5091416;28;20044;-68
2021/11/15 02:25:38;;;;;;;21.48;11.43;;;7.10;99.90;;;;;;5107823;28;20051;-68
2021/11/15 02:28:06;;;;;;;18.08;11.25;;;7.10;99.90;;;;;;5098546;28;20047;-68
2021/11/15 02:30:34;;;;;;;20.38;11.43;;;7.10;99.90;;;;;;5100148;28;20050;-68
2021/11/15 02:33:01;;;;;;;23.15;12.48;;;7.10;99.90;;;;;;5112009;28;20052;-68
2021/11/15 02:35:29;;;;;;;19.98;11.90;;;7.10;99.90;;;;;;5075240;28;20386;-68
2021/11/15 02:37:56;;;;;;;20.92;11.40;;;7.00;99.90;;;;;;5101469;28;20040;-68
2021/11/15 02:40:26;;;;;;;20.50;12.23;;;7.00;99.90;;;;;;5094739;28;20052;-68
2021/11/15 02:42:55;;;;;;;22.40;12.80;;;7.00;99.90;;;;;;5101837;28;20048;-68
2021/11/15 02:45:24;;;;;;;20.95;11.52;;;7.00;99.90;;;;;;5093484;28;20048;-68
2021/11/15 02:47:52;;;;;;;22.13;12.50;;;7.00;99.90;;;;;;5092364;28;20032;-68
2021/11/15 02:50:22;;;;;;;23.42;13.35;;;7.00;99.90;;;;;;5092182;28;20513;-68
2021/11/15 02:52:54;;;;;;;20.75;12.30;;;7.00;99.90;;;;;;5074685;28;20509;-69
2021/11/15 02:55:23;;;;;;;24.03;13.03;;;7.00;99.90;;;;;;5092916;28;20062;-68
2021/11/15 02:57:52;;;;;;;22.27;12.77;;;7.00;99.90;;;;;;5111065;28;20154;-68
2021/11/15 03:00:30;;;;;;;23.98;13.93;;;7.00;99.90;;;;;;5112991;28;20414;-68
2021/11/15 03:02:58;;;;;;;26.30;13.70;;;7.00;99.90;;;;;;5098160;28;20067;-68
2021/11/15 03:05:30;;;;;;;21.65;13.70;;;7.10;99.90;;;;;;5112746;28;20104;-68
2021/11/15 03:07:58;;;;;;;23.83;12.88;;;7.00;99.90;;;;;;5077689;28;20115;-69
2021/11/15 03:10:26;;;;;;;23.05;14.07;;;7.00;99.90;;;;;;5084417;28;20111;-68
2021/11/15 03:12:55;;;;;;;25.38;13.80;;;7.00;99.90;;;;;;5069445;28;20042;-68
2021/11/15 03:15:26;;;;;;;26.23;14.68;;;7.10;99.90;;;;;;5100939;28;20043;-68
2021/11/15 03:18:02;;;;;;;26.85;15.05;;;7.10;99.90;;;;;;5106225;28;20416;-68
2021/11/15 03:20:33;;;;;;;23.70;13.80;;;7.00;99.90;;;;;;5095825;28;20418;-68
2021/11/15 03:23:05;;;;;;;27.15;15.35;;;7.00;99.90;;;;;;5073137;28;20154;-68
2021/11/15 03:25:32;;;;;;;25.60;14.25;;;7.00;99.90;;;;;;5092014;28;20040;-68
2021/11/15 03:28:00;;;;;;;30.17;16.17;;;7.00;99.90;;;;;;5092117;28;20048;-68
2021/11/15 03:30:27;;;;;;;27.33;14.90;;;7.00;99.90;;;;;;5091666;28;20134;-68
2021/11/15 03:32:55;;;;;;;33.40;15.52;;;7.00;99.90;;;;;;5073592;28;20101;-68
2021/11/15 03:35:23;;;;;;;30.45;16.70;;;7.00;99.90;;;;;;5073630;28;20043;-68
2021/11/15 03:37:51;;;;;;;29.48;15.70;;;7.00;99.90;;;;;;5092138;28;20482;-68
2021/11/15 03:40:24;;;;;;;28.65;15.52;;;7.10;99.90;;;;;;5100128;28;20039;-68
2021/11/15 03:42:55;;;;;;;30.35;16.55;;;7.00;99.90;;;;;;5083668;28;20078;-68
2021/11/15 03:45:23;;;;;;;28.85;16.30;;;7.00;99.90;;;;;;5076143;28;20048;-68
2021/11/15 03:47:51;;;;;;;28.27;16.05;;;7.00;99.90;;;;;;5080705;28;20036;-68
2021/11/15 03:50:18;;;;;;;27.58;15.48;;;7.00;99.90;;;;;;5090335;28;20040;-68
2021/11/15 03:52:47;;;;;;;30.17;15.98;;;7.00;99.90;;;;;;5101211;28;20042;-68
2021/11/15 03:55:17;;;;;;;29.58;16.85;;;7.00;99.90;;;;;;5072612;28;20052;-68
2021/11/15 03:57:46;;;;;;;29.25;15.43;;;7.00;99.90;;;;;;5091597;28;20040;-68
2021/11/15 04:00:18;;;;;;;28.48;15.80;;;7.00;99.90;;;;;;5095332;28;20058;-68
2021/11/15 04:02:50;;;;;;;29.77;15.98;;;7.00;99.90;;;;;;5085770;28;20057;-68
2021/11/15 04:05:27;;;;;;;29.13;16.33;;;7.00;99.90;;;;;;5091900;28;20036;-68
2021/11/15 04:07:55;;;;;;;31.50;16.42;;;7.00;99.90;;;;;;5072196;28;21097;-68
2021/11/15 04:10:30;;;;;;;30.50;15.65;;;7.00;99.90;;;;;;5091100;28;20048;-68
2021/11/15 04:13:00;;;;;;;32.53;18.30;;;7.00;99.90;;;;;;5091513;28;20047;-69
2021/11/15 04:15:28;;;;;;;38.38;19.42;;;7.00;99.90;;;;;;5091072;28;20406;-68
2021/11/15 04:17:58;;;;;;;35.03;19.75;;;7.00;99.90;;;;;;5098509;28;20043;-68
2021/11/15 04:20:26;;;;;;;34.25;18.73;;;7.00;99.90;;;;;;5108866;28;20075;-68
2021/11/15 04:22:54;;;;;;;41.45;20.92;;;7.00;99.90;;;;;;5090939;28;20050;-68
2021/11/15 04:25:21;;;;;;;38.75;20.02;;;7.00;99.90;;;;;;5110570;28;20401;-68
2021/11/15 04:27:49;;;;;;;40.42;21.35;;;7.00;99.90;;;;;;5076121;28;20528;-68
2021/11/15 04:30:16;;;;;;;41.75;21.63;;;7.00;99.90;;;;;;5075155;28;20145;-68
2021/11/15 04:32:45;;;;;;;35.88;19.50;;;7.00;99.90;;;;;;5090718;28;20040;-68
2021/11/15 04:35:19;;;;;;;41.92;21.65;;;7.10;99.90;;;;;;5090745;28;20052;-68
2021/11/15 04:37:47;;;;;;;41.58;20.48;;;7.10;99.90;;;;;;5089324;28;20206;-68
2021/11/15 04:40:15;;;;;;;40.70;20.50;;;7.00;99.90;;;;;;5098063;28;20047;-68
2021/11/15 04:42:43;;;;;;;39.35;21.45;;;7.10;99.90;;;;;;5083341;28;20398;-68
2021/11/15 04:45:11;;;;;;;42.00;21.77;;;7.00;99.90;;;;;;5106493;28;20134;-68
2021/11/15 04:47:39;;;;;;;46.42;22.23;;;7.00;99.90;;;;;;5088581;28;20040;-68
2021/11/15 04:50:09;;;;;;;44.10;24.67;;;7.10;99.90;;;;;;5090573;28;20474;-68
2021/11/15 04:52:36;;;;;;;50.17;27.17;;;7.10;99.90;;;;;;5097398;28;21715;-68
2021/11/15 04:55:06;;;;;;;46.95;25.40;;;7.10;99.90;;;;;;5099765;28;20031;-68
2021/11/15 04:57:33;;;;;;;40.50;22.08;;;7.10;99.90;;;;;;5090771;28;20519;-68
2021/11/15 05:00:01;;;;;;;42.03;22.73;;;7.10;99.90;;;;;;5107329;28;20055;-68
2021/11/15 05:02:28;;;;;;;44.40;23.80;;;7.00;99.90;;;;;;5093241;28;20055;-68
2021/11/15 05:04:55;;;;;;;39.80;22.50;;;7.00;99.90;;;;;;5101410;28;20036;-68
2021/11/15 05:07:23;;;;;;;43.25;22.52;;;7.00;99.90;;;;;;5094251;28;20395;-68
2021/11/15 05:09:50;;;;;;;41.97;22.35;;;7.00;99.90;;;;;;5102900;28;20044;-68
2021/11/15 05:12:18;;;;;;;42.47;22.23;;;7.00;99.90;;;;;;5102160;28;20123;-68
2021/11/15 05:14:45;;;;;;;42.00;21.23;;;7.00;99.90;;;;;;5097267;28;20038;-68
2021/11/15 05:17:12;;;;;;;40.53;21.55;;;7.00;99.90;;;;;;5090397;28;20489;-68
2021/11/15 05:19:40;;;;;;;47.63;24.25;;;7.00;99.90;;;;;;5110475;28;20494;-68
2021/11/15 05:22:07;;;;;;;46.65;24.67;;;7.00;99.90;;;;;;5111110;28;20054;-69
2021/11/15 05:24:34;;;;;;;44.38;21.92;;;7.10;99.90;;;;;;5096700;28;20066;-68
2021/11/15 05:27:02;;;;;;;56.72;30.17;;;7.00;99.90;;;;;;5093842;28;20094;-68
2021/11/15 05:29:30;;;;;;;48.08;25.10;;;7.00;99.90;;;;;;5095528;28;20101;-68
2021/11/15 05:31:57;;;;;;;39.88;20.45;;;7.00;99.90;;;;;;5110056;28;20498;-68
2021/11/15 05:34:24;;;;;;;41.80;22.08;;;7.10;99.90;;;;;;5105074;28;20039;-68
2021/11/15 05:36:52;;;;;;;40.05;20.35;;;7.10;99.90;;;;;;5082863;28;20421;-68
2021/11/15 05:39:19;;;;;;;37.42;20.08;;;7.00;99.90;;;;;;5111550;28;20059;-68
2021/11/15 05:41:46;;;;;;;38.40;20.88;;;7.00;99.90;;;;;;5064989;28;20309;-68
2021/11/15 05:44:14;;;;;;;38.40;20.42;;;7.00;99.90;;;;;;5106076;28;20529;-68
2021/11/15 05:46:41;;;;;;;37.20;19.90;;;7.00;99.90;;;;;;5093880;28;20040;-68
2021/11/15 05:49:09;;;;;;;41.08;20.08;;;7.00;99.90;;;;;;5107761;28;20268;-68
2021/11/15 05:51:36;;;;;;;39.17;20.80;;;7.00;99.90;;;;;;5078977;28;20048;-68
2021/11/15 05:54:03;;;;;;;36.95;19.95;;;7.00;99.90;;;;;;5111319;28;20035;-68
2021/11/15 05:56:31;;;;;;;42.28;22.10;;;7.00;99.90;;;;;;5111174;28;20462;-68
2021/11/15 05:58:58;;;;;;;38.45;19.02;;;7.00;99.90;;;;;;5093175;28;20039;-68
2021/11/15 06:01:26;;;;;;;38.53;21.08;;;7.00;99.90;;;;;;5110587;28;20040;-68
2021/11/15 06:03:53;;;;;;;42.67;21.63;;;7.00;99.90;;;;;;5111126;28;20103;-68
2021/11/15 06:06:21;;;;;;;36.80;20.45;;;7.00;99.90;;;;;;5106436;28;20044;-68
2021/11/15 06:08:48;;;;;;;35.13;19.52;;;7.00;99.90;;;;;;5104237;28;20052;-69
2021/11/15 06:11:16;;;;;;;35.00;18.98;;;7.00;99.90;;;;;;5074136;28;20052;-69
2021/11/15 06:13:43;;;;;;;39.05;20.05;;;7.00;99.90;;;;;;5112788;28;20047;-69
2021/11/15 06:16:10;;;;;;;32.53;16.60;;;7.00;99.90;;;;;;5109371;28;20044;-68
2021/11/15 06:18:38;;;;;;;38.17;19.00;;;7.00;99.90;;;;;;5099266;28;20062;-68
2021/11/15 06:21:05;;;;;;;35.88;19.73;;;7.00;99.90;;;;;;5107729;28;20582;-68
2021/11/15 06:23:33;;;;;;;34.65;17.48;;;7.00;99.90;;;;;;5107850;28;20044;-68
2021/11/15 06:26:00;;;;;;;36.42;18.95;;;7.00;99.90;;;;;;5066391;28;20063;-68
2021/11/15 06:28:28;;;;;;;34.83;19.48;;;7.00;99.90;;;;;;5102662;28;20050;-68
2021/11/15 06:30:55;;;;;;;34.47;19.40;;;7.00;99.90;;;;;;5112412;28;20040;-68
2021/11/15 06:33:22;;;;;;;32.95;17.35;;;7.00;99.90;;;;;;5089694;28;20089;-68
2021/11/15 06:35:50;;;;;;;34.28;17.35;;;7.00;99.90;;;;;;5112982;28;20050;-68
2021/11/15 06:38:18;;;;;;;32.90;17.63;;;7.00;99.90;;;;;;5102702;28;20516;-68
2021/11/15 06:40:45;;;;;;;36.33;18.05;;;7.00;99.90;;;;;;5090101;28;20483;-68
2021/11/15 06:43:12;;;;;;;34.30;17.98;;;7.00;99.90;;;;;;5109549;28;20038;-68
2021/11/15 06:45:40;;;;;;;36.33;18.42;;;7.00;99.90;;;;;;5105219;28;20560;-68
2021/11/15 06:48:07;;;;;;;33.72;17.70;;;7.00;99.90;;;;;;5099128;28;20043;-68
2021/11/15 06:50:34;;;;;;;32.83;17.50;;;7.00;99.90;;;;;;5098301;28;20036;-68
2021/11/15 06:53:02;;;;;;;35.15;18.60;;;7.00;99.90;;;;;;5099870;28;20036;-68
2021/11/15 06:55:31;;;;;;;34.15;17.45;;;7.00;99.90;;;;;;5099727;28;20047;-69
2021/11/15 06:57:58;;;;;;;31.00;17.17;;;7.00;99.90;;;;;;5088741;28;20050;-69
2021/11/15 07:00:26;;;;;;;30.23;16.25;;;7.00;99.90;;;;;;5073905;28;20122;-68
2021/11/15 07:02:56;;;;;;;34.10;16.85;;;7.00;99.90;;;;;;5106634;28;20074;-68
2021/11/15 07:05:24;;;;;;;30.83;15.93;;;7.10;99.90;;;;;;5109923;28;20135;-68
2021/11/15 07:07:53;;;;;;;34.15;16.38;;;7.10;99.90;;;;;;5106549;28;20482;-68
2021/11/15 07:10:21;;;;;;;30.20;15.23;;;7.10;99.90;;;;;;5107209;28;20040;-68
2021/11/15 07:12:50;;;;;;;30.20;15.40;;;7.10;99.90;;;;;;5111283;28;20347;-68
2021/11/15 07:15:18;;;;;;;33.13;17.08;;;7.10;99.90;;;;;;5112051;28;20032;-68
2021/11/15 07:17:46;;;;;;;32.22;15.93;;;7.10;99.90;;;;;;5084966;28;20044;-68
2021/11/15 07:20:14;;;;;;;30.65;15.95;;;7.10;99.90;;;;;;5107588;28;20075;-68
2021/11/15 07:22:44;;;;;;;27.92;15.38;;;7.10;99.90;;;;;;5112014;28;20058;-68
2021/11/15 07:25:11;;;;;;;29.63;16.48;;;7.10;99.90;;;;;;5111610;28;20039;-68
2021/11/15 07:27:39;;;;;;;30.52;16.63;;;7.20;99.90;;;;;;5092283;28;20043;-69
2021/11/15 07:30:08;;;;;;;29.83;15.35;;;7.20;99.90;;;;;;5109865;28;20047;-68
2021/11/15 07:32:36;;;;;;;28.42;13.70;;;7.20;99.90;;;;;;5109921;28;20047;-68
2021/11/15 07:35:04;;;;;;;29.55;14.32;;;7.30;99.90;;;;;;5110752;28;20043;-67
2021/11/15 07:37:31;;;;;;;28.20;14.25;;;7.30;99.90;;;;;;5110485;28;20047;-67
2021/11/15 07:39:59;;;;;;;28.30;13.98;;;7.30;99.90;;;;;;5091148;28;20054;-68
2021/11/15 07:42:26;;;;;;;25.60;14.25;;;7.30;99.90;;;;;;5097167;28;20510;-68
2021/11/15 07:44:54;;;;;;;29.40;16.38;;;7.30;99.90;;;;;;5111004;28;20075;-67
2021/11/15 07:47:21;;;;;;;29.00;14.57;;;7.30;99.90;;;;;;5110972;28;20043;-68
2021/11/15 07:49:49;;;;;;;27.17;14.75;;;7.40;99.90;;;;;;5111697;28;20130;-68
2021/11/15 07:52:21;;;;;;;26.08;13.90;;;7.40;99.90;;;;;;5088177;28;20093;-68
2021/11/15 07:54:49;;;;;;;32.88;14.77;;;7.40;99.90;;;;;;5069622;28;20139;-68
2021/11/15 07:57:17;;;;;;;27.30;13.63;;;7.40;99.90;;;;;;5104002;28;20093;-68
2021/11/15 07:59:45;;;;;;;27.80;14.18;;;7.40;99.90;;;;;;5092847;28;20383;-68
2021/11/15 08:02:13;;;;;;;27.80;15.55;;;7.40;99.90;;;;;;5091555;28;20088;-68
2021/11/15 08:04:41;;;;;;;26.15;14.20;;;7.40;99.90;;;;;;5106961;28;20054;-68
2021/11/15 08:07:08;;;;;;;28.90;13.48;;;7.50;99.90;;;;;;5092846;28;20039;-67
2021/11/15 08:09:36;;;;;;;25.63;13.90;;;7.50;99.90;;;;;;5108933;28;20047;-67
2021/11/15 08:12:06;;;;;;;26.65;14.07;;;7.50;99.90;;;;;;5103541;28;20070;-67
2021/11/15 08:14:35;;;;;;;27.10;14.30;;;7.50;99.90;;;;;;5091926;28;20154;-67
2021/11/15 08:17:03;;;;;;;28.77;16.50;;;7.60;99.90;;;;;;5108178;28;20066;-68
2021/11/15 08:19:30;;;;;;;26.40;15.23;;;7.50;99.90;;;;;;5100500;28;20028;-69
2021/11/15 08:21:58;;;;;;;22.95;13.50;;;7.60;99.90;;;;;;5094410;28;20047;-68
2021/11/15 08:24:28;;;;;;;26.30;12.93;;;7.60;99.90;;;;;;5107199;28;20454;-67
2021/11/15 08:27:01;;;;;;;28.77;14.25;;;7.70;99.90;;;;;;5084020;28;20054;-68
2021/11/15 08:29:31;;;;;;;;;;;7.70;99.90;;;;;;5096011;28;20074;-68
2021/11/15 08:32:06;;;;;;;26.73;13.60;;;7.70;99.90;;;;;;5091610;28;20353;-68
2021/11/15 08:34:35;;;;;;;23.83;13.15;;;7.70;99.90;;;;;;5089231;28;20046;-68
2021/11/15 08:37:05;;;;;;;26.38;13.95;;;7.80;99.90;;;;;;5090026;28;20359;-68
2021/11/15 08:39:34;;;;;;;37.45;20.30;;;7.80;99.90;;;;;;5090738;28;20405;-68
2021/11/15 08:42:06;;;;;;;31.08;14.15;;;7.80;99.90;;;;;;5106552;28;20046;-68
2021/11/15 08:44:34;;;;;;;24.52;12.68;;;7.90;99.90;;;;;;5067003;28;20489;-68
2021/11/15 08:47:01;;;;;;;23.35;12.77;;;7.90;99.90;;;;;;5089420;28;20421;-68
2021/11/15 08:49:33;;;;;;;26.38;14.32;;;8.00;99.90;;;;;;5102242;28;20036;-67
2021/11/15 08:52:04;;;;;;;29.48;15.02;;;8.00;99.90;;;;;;5091475;28;20453;-67
2021/11/15 08:54:34;;;;;;;24.10;13.90;;;8.00;99.90;;;;;;5071486;28;20040;-68
2021/11/15 08:57:05;;;;;;;24.92;13.57;;;8.00;99.90;;;;;;5101221;28;20486;-68
2021/11/15 08:59:44;;;;;;;26.67;13.87;;;8.00;99.90;;;;;;5091706;28;20043;-68
2021/11/15 09:02:12;;;;;;;25.08;12.65;;;8.10;99.90;;;;;;5107651;28;20055;-68
2021/11/15 09:04:41;;;;;;;23.02;12.45;;;8.10;99.90;;;;;;5107353;28;20060;-68
2021/11/15 09:07:08;;;;;;;27.33;13.02;;;8.10;99.90;;;;;;5078824;28;20127;-68
2021/11/15 09:09:36;;;;;;;22.77;12.68;;;8.20;99.90;;;;;;5105521;28;20119;-68
2021/11/15 09:12:06;;;;;;;23.73;13.13;;;8.20;99.90;;;;;;5090624;28;20122;-68
2021/11/15 09:14:33;;;;;;;25.45;12.93;;;8.30;99.90;;;;;;5110489;28;20130;-68
2021/11/15 09:17:00;;;;;;;24.35;13.30;;;8.30;99.90;;;;;;5108401;28;20039;-68
2021/11/15 09:19:28;;;;;;;22.10;11.43;;;8.40;99.90;;;;;;5106322;28;20036;-68
2021/11/15 09:21:57;;;;;;;24.00;12.60;;;8.30;99.90;;;;;;5108424;28;20036;-68
2021/11/15 09:24:24;;;;;;;26.33;12.70;;;8.30;99.90;;;;;;5109276;28;20338;-68
2021/11/15 09:26:53;;;;;;;22.98;11.95;;;8.40;99.90;;;;;;5073160;28;20398;-68
2021/11/15 09:29:22;;;;;;;24.00;11.48;;;8.50;99.90;;;;;;5089367;28;20048;-69
2021/11/15 09:31:49;;;;;;;23.73;12.10;;;8.60;99.90;;;;;;5109556;28;20564;-69
2021/11/15 09:34:17;;;;;;;26.27;12.38;;;8.60;99.90;;;;;;5081951;28;20544;-69
2021/11/15 09:36:44;;;;;;;19.50;11.13;;;8.60;99.90;;;;;;5104972;28;20547;-70
2021/11/15 09:39:13;;;;;;;25.60;13.45;;;8.70;99.90;;;;;;5102286;28;20506;-69
2021/11/15 09:41:44;;;;;;;21.75;11.57;;;8.70;99.90;;;;;;5107628;28;20105;-69
2021/11/15 09:44:13;;;;;;;23.38;11.60;;;8.80;99.90;;;;;;5105126;28;20059;-69
2021/11/15 09:46:41;;;;;;;20.85;11.32;;;8.90;99.90;;;;;;5088672;28;20056;-69
2021/11/15 09:49:12;;;;;;;23.45;12.13;;;8.90;99.90;;;;;;5093750;28;20040;-69
2021/11/15 09:51:43;;;;;;;21.60;11.82;;;8.90;99.90;;;;;;5089360;28;20056;-68
2021/11/15 09:54:11;;;;;;;23.75;12.02;;;8.90;99.90;;;;;;5093854;28;20406;-68
2021/11/15 09:56:40;;;;;;;22.95;12.55;;;8.90;99.90;;;;;;5104472;28;20062;-68
2021/11/15 09:59:11;;;;;;;21.10;11.05;;;9.00;99.90;;;;;;5107972;28;20093;-68
2021/11/15 10:01:45;;;;;;;20.20;11.13;;;9.10;99.90;;;;;;5093704;28;20067;-68
2021/11/15 10:04:14;;;;;;;24.95;12.75;;;9.10;99.90;;;;;;5080128;28;20090;-68
2021/11/15 10:06:42;;;;;;;21.15;11.63;;;9.10;99.90;;;;;;5111532;28;20054;-68
2021/11/15 10:09:10;;;;;;;21.90;11.90;;;9.10;99.90;;;;;;5098644;28;20063;-68
2021/11/15 10:11:45;;;;;;;23.08;12.10;;;9.10;99.90;;;;;;5104496;28;20106;-68
2021/11/15 10:14:15;;;;;;;21.08;12.05;;;9.20;99.90;;;;;;5076996;28;20130;-68
2021/11/15 10:16:55;;;;;;;23.08;10.98;;;9.20;99.90;;;;;;5077695;28;20058;-68
2021/11/15 10:19:23;;;;;;;24.55;12.45;;;9.30;99.90;;;;;;5109903;28;20048;-68
2021/11/15 10:21:54;;;;;;;20.75;11.50;;;9.30;99.90;;;;;;5106292;28;20040;-68
2021/11/15 10:24:42;;;;;;;22.00;11.75;;;9.20;99.90;;;;;;5086176;28;20054;-69
2021/11/15 10:27:18;;;;;;;18.77;10.63;;;9.20;99.90;;;;;;5089992;28;20059;-69
2021/11/15 10:29:52;;;;;;;20.85;11.07;;;9.20;99.90;;;;;;5070884;28;20040;-69
2021/11/15 10:32:28;;;;;;;19.50;11.07;;;9.20;99.90;;;;;;5092912;28;20071;-69
2021/11/15 10:34:59;;;;;;;20.80;9.90;;;9.20;99.90;;;;;;5095069;28;20043;-69
2021/11/15 10:37:29;;;;;;;27.80;11.23;;;9.20;99.90;;;;;;5102407;28;20044;-69
2021/11/15 10:40:06;;;;;;;21.63;11.10;;;9.20;99.90;;;;;;5098813;28;20045;-69
2021/11/15 10:42:36;;;;;;;19.35;10.82;;;9.30;99.90;;;;;;5056448;28;20407;-69
2021/11/15 10:45:09;;;;;;;17.52;9.90;;;9.40;99.90;;;;;;5091343;28;20048;-69
2021/11/15 10:47:43;;;;;;;19.80;11.23;;;9.50;99.90;;;;;;5095803;28;20123;-68
2021/11/15 10:50:24;;;;;;;22.58;11.73;;;9.50;99.90;;;;;;5092658;28;20032;-68
2021/11/15 10:53:10;;;;;;;24.35;12.02;;;9.50;99.90;;;;;;5090842;28;20044;-70
2021/11/15 10:55:40;;;;;;;20.08;11.18;;;9.60;99.90;;;;;;5105502;28;20036;-68
2021/11/15 10:58:25;;;;;;;20.33;11.18;;;9.70;99.90;;;;;;5098697;28;20043;-68
2021/11/15 11:00:59;;;;;;;23.45;11.60;;;9.60;99.90;;;;;;5111515;28;20050;-68
2021/11/15 11:03:28;;;;;;;19.13;11.00;;;9.60;99.90;;;;;;5074362;28;20070;-68
2021/11/15 11:06:01;;;;;;;22.30;11.50;;;9.60;99.90;;;;;;5108918;28;20051;-70
2021/11/15 11:08:50;;;;;;;20.77;10.98;;;9.70;99.90;;;;;;5104718;28;20040;-68
2021/11/15 11:11:32;;;;;;;22.55;11.70;;;9.70;99.90;;;;;;5075471;28;20072;-67
2021/11/15 11:14:04;;;;;;;22.33;11.52;;;9.80;99.90;;;;;;5100562;28;20044;-67
2021/11/15 11:16:39;;;;;;;19.85;10.98;;;9.80;99.90;;;;;;5073475;28;20044;-69
2021/11/15 11:22:06;;;;;;;19.13;11.25;;;10.00;99.90;;;;;;5105918;28;20417;-68
2021/11/15 11:27:16;;;;;;;17.90;10.85;;;9.90;99.90;;;;;;5104557;28;20410;-69
2021/11/15 11:29:53;;;;;;;23.15;11.55;;;9.90;99.90;;;;;;5109802;28;20051;-68
2021/11/15 11:32:24;;;;;;;22.23;11.38;;;9.90;99.90;;;;;;5105462;28;20486;-68
2021/11/15 11:34:55;;;;;;;20.20;11.38;;;9.90;99.90;;;;;;5088094;28;20032;-69
2021/11/15 11:37:26;;;;;;;23.35;11.82;;;10.00;99.90;;;;;;5111824;28;20047;-69
2021/11/15 11:39:55;;;;;;;23.92;12.95;;;10.00;99.90;;;;;;5101359;28;20046;-69
2021/11/15 11:42:23;;;;;;;23.52;12.88;;;10.00;99.90;;;;;;5108125;28;20452;-69
2021/11/15 11:44:53;;;;;;;22.02;12.98;;;10.10;99.90;;;;;;5099185;28;20050;-69
2021/11/15 11:47:26;;;;;;;21.27;12.20;;;10.10;99.90;;;;;;5109680;28;20047;-69
2021/11/15 11:50:01;;;;;;;22.90;12.45;;;10.10;99.90;;;;;;5094338;28;20032;-69
2021/11/15 11:52:31;;;;;;;23.90;12.93;;;10.30;99.90;;;;;;5102355;28;20417;-69
2021/11/15 11:54:59;;;;;;;25.10;12.38;;;10.30;99.90;;;;;;5111559;28;20115;-69
2021/11/15 11:57:32;;;;;;;23.70;12.32;;;10.40;99.90;;;;;;5092790;28;20118;-69
2021/11/15 12:00:08;;;;;;;20.98;11.90;;;10.50;99.90;;;;;;5106594;28;20049;-69
2021/11/15 12:02:39;;;;;;;24.27;12.38;;;10.60;99.90;;;;;;5111661;28;20039;-69
2021/11/15 12:05:14;;;;;;;21.88;12.57;;;10.50;99.90;;;;;;5106064;28;20040;-69
2021/11/15 12:07:50;;;;;;;22.02;12.63;;;10.50;99.90;;;;;;5111152;28;20044;-68
2021/11/15 12:10:47;;;;;;;24.55;13.02;;;10.50;99.90;;;;;;5087792;28;20047;-68
2021/11/15 12:13:17;;;;;;;23.67;13.77;;;10.60;99.90;;;;;;5080983;28;20044;-68
2021/11/15 12:16:00;;;;;;;27.25;14.63;;;10.50;99.90;;;;;;5096606;28;20505;-68
2021/11/15 12:18:32;;;;;;;20.90;12.50;;;10.60;99.90;;;;;;5100971;28;20128;-68
2021/11/15 12:21:02;;;;;;;21.55;12.63;;;10.50;99.90;;;;;;5080666;28;20123;-68
2021/11/15 12:23:40;;;;;;;21.33;11.95;;;10.50;99.90;;;;;;5089525;28;20044;-69
2021/11/15 12:26:13;;;;;;;23.88;13.05;;;10.60;99.90;;;;;;5110177;28;20574;-69
2021/11/15 12:28:43;;;;;;;25.17;12.90;;;10.50;99.90;;;;;;5078323;28;20031;-69
2021/11/15 12:31:12;;;;;;;25.15;12.55;;;10.40;99.90;;;;;;5110976;28;20119;-69
2021/11/15 12:33:42;;;;;;;22.55;12.48;;;10.40;99.90;;;;;;5075716;28;20091;-70
2021/11/15 12:36:24;;;;;;;23.95;13.27;;;10.40;99.90;;;;;;5078384;28;20445;-68
2021/11/15 12:38:54;;;;;;;24.10;13.82;;;10.30;99.90;;;;;;5088831;28;20040;-68
2021/11/15 12:41:23;;;;;;;20.85;12.55;;;10.30;99.90;;;;;;5107020;28;20406;-68
2021/11/15 12:44:00;;;;;;;28.55;14.23;;;10.20;99.90;;;;;;5105371;28;20514;-68
2021/11/15 12:46:44;;;;;;;24.90;12.77;;;10.20;99.90;;;;;;5089517;28;20058;-68
2021/11/15 12:49:20;;;;;;;22.45;13.00;;;10.20;99.90;;;;;;5097046;28;20043;-68
2021/11/15 12:52:12;;;;;;;26.05;14.02;;;10.30;99.90;;;;;;5091287;28;20093;-68
2021/11/15 12:54:51;;;;;;;;;;;10.20;99.90;;;;;;5105591;28;20038;-68
2021/11/15 12:57:18;;;;;;;26.33;13.40;;;10.30;99.90;;;;;;5060819;28;19930;-70